Time;durP1;ratioP1;P1;durP2;ratioP2;P2;SDS_P1;SDS_P2;PMS_P1;PMS_P2;Temp;Humidity;BMP_temperature;BMP_pressure;BME280_temperature;BME280_humidity;BME280_pressure;Samples;Min_cycle;Max_cycle;Signal;HPM_P1;HPM_P2
2021/09/30 00:00:37;;;;;;;0.70;0.70;;;10.70;99.90;;;;;;4969738;28;20236;-70
2021/09/30 00:03:03;;;;;;;1.02;0.90;;;10.60;99.90;;;;;;4955991;29;20263;-69
2021/09/30 00:05:28;;;;;;;0.87;0.77;;;10.60;99.90;;;;;;4956088;29;20215;-70
2021/09/30 00:07:54;;;;;;;0.60;0.60;;;10.60;99.90;;;;;;4955555;29;20256;-69
2021/09/30 00:10:22;;;;;;;0.67;0.67;;;10.50;99.90;;;;;;4955784;29;20204;-69
2021/09/30 00:13:21;;;;;;;0.90;0.60;;;10.50;99.90;;;;;;4956001;29;20174;-69
2021/09/30 00:34:16;;;;;;;1.45;0.60;;;10.20;99.90;;;;;;4974918;28;20223;-69
2021/09/30 00:40:12;;;;;;;0.80;0.80;;;10.00;99.90;;;;;;4975000;28;20246;-69
2021/09/30 00:47:41;;;;;;;0.50;0.50;;;9.90;99.90;;;;;;4974254;28;20241;-70
2021/09/30 00:50:18;;;;;;;0.50;0.50;;;9.90;99.90;;;;;;4974196;28;20729;-70
2021/09/30 00:52:54;;;;;;;1.30;0.90;;;9.90;99.90;;;;;;4974568;28;20172;-70
2021/09/30 01:19:10;;;;;;;0.52;0.52;;;9.80;99.90;;;;;;4974021;28;20219;-70
2021/09/30 01:23:08;;;;;;;0.60;0.60;;;9.80;99.90;;;;;;4974446;28;20176;-70
2021/09/30 02:58:59;;;;;;;0.73;0.73;;;8.40;99.90;;;;;;4957494;29;20698;-69
2021/09/30 03:01:27;;;;;;;0.63;0.63;;;8.30;99.90;;;;;;4966215;28;20191;-70
2021/09/30 03:03:55;;;;;;;0.75;0.75;;;8.30;99.90;;;;;;4976455;28;20201;-69
2021/09/30 03:06:21;;;;;;;0.80;0.80;;;8.30;99.90;;;;;;4976350;28;20164;-69
2021/09/30 03:08:51;;;;;;;0.90;0.90;;;8.30;99.90;;;;;;4975855;28;20202;-69
2021/09/30 03:11:20;;;;;;;1.48;0.80;;;8.20;99.90;;;;;;4976443;28;20609;-70
2021/09/30 03:13:48;;;;;;;1.00;1.00;;;8.20;99.90;;;;;;4968683;28;20176;-69
2021/09/30 03:16:26;;;;;;;1.63;0.90;;;8.20;99.90;;;;;;4956999;29;20168;-70
2021/09/30 03:18:56;;;;;;;1.25;1.15;;;8.20;99.90;;;;;;4956549;29;20192;-69
2021/09/30 03:24:11;;;;;;;2.28;1.10;;;8.10;99.90;;;;;;4956987;29;20726;-69
2021/09/30 03:26:38;;;;;;;1.95;1.85;;;8.10;99.90;;;;;;4939573;29;20542;-69
2021/09/30 03:29:04;;;;;;;3.28;3.00;;;8.10;99.90;;;;;;4968043;28;20543;-69
2021/09/30 03:31:32;;;;;;;4.60;2.50;;;8.10;99.90;;;;;;4975903;28;20204;-69
2021/09/30 03:33:59;;;;;;;2.45;2.33;;;8.00;99.90;;;;;;4976284;28;20168;-69
2021/09/30 03:36:25;;;;;;;2.00;1.90;;;8.00;99.90;;;;;;4975794;28;20230;-69
2021/09/30 03:38:51;;;;;;;1.90;1.80;;;8.00;99.90;;;;;;4975440;28;20586;-70
2021/09/30 03:41:17;;;;;;;1.97;1.87;;;8.00;99.90;;;;;;4966082;28;20489;-70
2021/09/30 03:43:42;;;;;;;1.92;1.83;;;7.90;99.90;;;;;;4956583;29;20180;-70
2021/09/30 03:46:08;;;;;;;2.03;1.90;;;7.90;99.90;;;;;;4956568;29;20651;-70
2021/09/30 03:48:34;;;;;;;2.43;1.80;;;7.80;99.90;;;;;;4938772;29;20206;-69
2021/09/30 03:56:01;;;;;;;1.63;1.52;;;7.80;99.90;;;;;;4964373;28;20218;-69
2021/09/30 04:01:11;;;;;;;1.35;1.30;;;7.70;99.90;;;;;;4964916;28;20194;-69
2021/09/30 04:03:37;;;;;;;0.90;0.90;;;7.70;99.90;;;;;;4956294;29;20175;-70
2021/09/30 04:06:03;;;;;;;1.33;1.23;;;7.60;99.90;;;;;;4964790;28;20457;-70
2021/09/30 04:08:29;;;;;;;1.05;0.95;;;7.60;99.90;;;;;;4974739;28;20257;-70
2021/09/30 04:10:56;;;;;;;0.90;0.90;;;7.60;99.90;;;;;;4975185;28;20202;-70
2021/09/30 04:13:22;;;;;;;0.85;0.85;;;7.60;99.90;;;;;;4975243;28;20167;-70
2021/09/30 04:15:50;;;;;;;0.90;0.90;;;7.60;99.90;;;;;;4975203;28;20172;-70
2021/09/30 04:18:16;;;;;;;1.13;1.13;;;7.60;99.90;;;;;;4974692;28;20445;-70
2021/09/30 04:20:41;;;;;;;1.30;1.20;;;7.50;99.90;;;;;;4966249;28;20233;-70
2021/09/30 04:23:07;;;;;;;0.97;0.97;;;7.50;99.90;;;;;;4955651;29;20638;-69
2021/09/30 04:25:33;;;;;;;1.03;1.03;;;7.50;99.90;;;;;;4955846;29;20195;-69
2021/09/30 04:27:58;;;;;;;3.50;2.07;;;7.50;99.90;;;;;;4955556;29;20422;-70
2021/09/30 04:30:24;;;;;;;0.83;0.83;;;7.40;99.90;;;;;;4955528;29;20242;-69
2021/09/30 04:32:50;;;;;;;1.60;1.10;;;7.40;99.90;;;;;;4959850;28;20259;-69
2021/09/30 04:35:16;;;;;;;1.83;1.73;;;7.40;99.90;;;;;;4966279;28;20540;-70
2021/09/30 04:37:41;;;;;;;0.70;0.70;;;7.40;99.90;;;;;;4955260;29;20180;-70
2021/09/30 04:40:07;;;;;;;1.97;1.20;;;7.40;99.90;;;;;;4955660;29;20267;-69
2021/09/30 04:42:34;;;;;;;1.45;1.35;;;7.30;99.90;;;;;;4956135;29;20187;-69
2021/09/30 04:45:00;;;;;;;2.28;0.88;;;7.30;99.90;;;;;;4955828;29;20528;-69
2021/09/30 04:47:25;;;;;;;2.10;2.00;;;7.30;99.90;;;;;;4958183;28;20170;-69
2021/09/30 04:49:51;;;;;;;1.40;1.30;;;7.30;99.90;;;;;;4974676;28;20460;-70
2021/09/30 04:52:17;;;;;;;1.90;1.60;;;7.30;99.90;;;;;;4974454;28;20213;-71
2021/09/30 04:54:42;;;;;;;1.47;1.37;;;7.20;99.90;;;;;;4974635;28;20199;-69
2021/09/30 04:57:08;;;;;;;1.53;1.40;;;7.20;99.90;;;;;;4974120;28;20178;-70
2021/09/30 04:59:34;;;;;;;1.20;1.10;;;7.20;99.90;;;;;;4974554;28;20207;-70
2021/09/30 05:02:00;;;;;;;1.73;1.30;;;7.20;99.90;;;;;;4968191;28;20182;-70
2021/09/30 05:04:26;;;;;;;1.57;1.47;;;7.20;99.90;;;;;;4955110;29;20439;-69
2021/09/30 05:06:52;;;;;;;1.70;1.47;;;7.20;99.90;;;;;;4955094;28;20408;-71
2021/09/30 05:09:23;;;;;;;3.53;1.55;;;7.20;99.90;;;;;;4943548;29;20838;-70
2021/09/30 05:12:02;;;;;;;1.52;1.42;;;7.20;99.90;;;;;;4961393;28;20665;-71
2021/09/30 05:14:28;;;;;;;1.25;1.25;;;7.20;99.90;;;;;;4960995;29;20234;-70
2021/09/30 05:16:53;;;;;;;1.43;1.43;;;7.20;99.90;;;;;;4968281;28;20745;-69
2021/09/30 05:19:20;;;;;;;1.57;1.47;;;7.20;99.90;;;;;;4980421;28;20204;-69
2021/09/30 05:21:46;;;;;;;1.02;1.02;;;7.10;99.90;;;;;;4980912;28;20443;-69
2021/09/30 05:24:12;;;;;;;1.70;1.60;;;7.10;99.90;;;;;;4981007;28;20232;-71
2021/09/30 05:26:37;;;;;;;1.80;1.40;;;7.20;99.90;;;;;;4980551;28;20186;-71
2021/09/30 05:29:03;;;;;;;1.17;1.10;;;7.20;99.90;;;;;;4963184;28;20258;-71
2021/09/30 05:31:30;;;;;;;1.80;1.70;;;7.20;99.90;;;;;;4974354;28;20171;-71
2021/09/30 05:34:02;;;;;;;1.08;1.08;;;7.30;99.90;;;;;;4944241;29;20418;-75
2021/09/30 05:36:27;;;;;;;1.48;1.38;;;7.20;99.90;;;;;;4961478;29;20199;-75
2021/09/30 05:38:53;;;;;;;1.33;1.03;;;7.30;99.90;;;;;;4943767;29;20244;-75
2021/09/30 05:41:20;;;;;;;8.40;2.50;;;7.30;99.90;;;;;;4961289;29;20173;-73
2021/09/30 05:43:51;;;;;;;2.10;1.83;;;7.30;99.90;;;;;;4943992;29;20182;-76
2021/09/30 05:46:19;;;;;;;1.25;1.15;;;7.40;99.90;;;;;;4967506;28;20182;-74
2021/09/30 05:48:45;;;;;;;1.20;1.10;;;7.50;99.90;;;;;;4980287;28;20187;-72
2021/09/30 05:51:11;;;;;;;0.97;0.97;;;7.50;99.90;;;;;;4980367;28;20214;-72
2021/09/30 05:53:37;;;;;;;1.10;1.10;;;7.60;99.90;;;;;;4980740;28;20185;-70
2021/09/30 05:56:03;;;;;;;1.40;1.30;;;7.60;99.90;;;;;;4971631;28;20176;-72
2021/09/30 05:58:28;;;;;;;1.93;1.83;;;7.70;99.90;;;;;;4943468;29;20539;-71
2021/09/30 06:01:09;;;;;;;2.30;2.20;;;7.80;99.90;;;;;;4961046;29;20416;-71
2021/09/30 06:12:14;;;;;;;8.18;2.13;;;9.40;99.90;;;;;;4947175;28;20183;-73
2021/09/30 06:14:43;;;;;;;3.10;2.28;;;10.00;99.90;;;;;;4980343;28;20255;-71
2021/09/30 06:17:08;;;;;;;1.60;1.50;;;10.20;99.90;;;;;;4979689;28;20239;-73
2021/09/30 06:19:34;;;;;;;6.40;2.57;;;10.40;99.90;;;;;;4978210;28;20666;-74
2021/09/30 06:22:04;;;;;;;4.30;1.30;;;10.50;99.90;;;;;;4977256;28;20527;-73
2021/09/30 06:24:30;;;;;;;1.80;1.63;;;10.60;99.90;;;;;;4973121;28;20420;-74
2021/09/30 06:26:56;;;;;;;2.20;1.80;;;10.60;99.90;;;;;;4957491;29;20188;-74
2021/09/30 06:29:22;;;;;;;1.60;1.50;;;10.90;99.90;;;;;;4940950;29;20471;-73
2021/09/30 06:31:50;;;;;;;1.20;1.17;;;11.30;99.90;;;;;;4956643;29;20545;-75
2021/09/30 06:34:16;;;;;;;1.13;0.90;;;11.90;99.90;;;;;;4956761;29;20202;-72
2021/09/30 06:36:41;;;;;;;1.43;1.33;;;12.10;99.90;;;;;;4955549;29;20781;-73
2021/09/30 06:39:07;;;;;;;2.10;1.10;;;12.00;99.90;;;;;;4958233;28;20245;-73
2021/09/30 06:41:33;;;;;;;1.10;1.10;;;11.80;99.90;;;;;;4974965;28;20197;-74
2021/09/30 06:43:58;;;;;;;1.93;1.83;;;11.60;99.90;;;;;;4974775;28;20231;-74
2021/09/30 06:46:25;;;;;;;3.20;2.03;;;11.40;99.90;;;;;;4974739;28;20226;-73
2021/09/30 06:48:51;;;;;;;1.65;1.55;;;11.30;99.90;;;;;;4974284;28;20290;-72
2021/09/30 06:51:16;;;;;;;6.83;1.60;;;11.10;99.90;;;;;;4958624;28;20278;-73
2021/09/30 06:53:42;;;;;;;2.10;1.10;;;11.20;99.90;;;;;;4974973;28;20219;-72
2021/09/30 06:56:11;;;;;;;1.60;1.50;;;11.40;99.90;;;;;;4957466;29;20180;-73
2021/09/30 06:58:42;;;;;;;2.22;1.80;;;11.80;99.90;;;;;;4957066;29;20174;-72
2021/09/30 07:01:12;;;;;;;1.60;1.50;;;12.40;99.90;;;;;;4958444;29;20535;-73
2021/09/30 07:03:38;;;;;;;1.00;1.00;;;13.20;99.90;;;;;;4958227;28;20455;-73
2021/09/30 07:06:05;;;;;;;1.00;1.00;;;14.10;99.90;;;;;;4957514;29;20780;-75
2021/09/30 07:08:31;;;;;;;1.10;0.90;;;14.90;99.90;;;;;;4957080;29;20407;-72
2021/09/30 07:10:57;;;;;;;1.10;0.97;;;15.90;99.90;;;;;;4957002;28;20958;-73
2021/09/30 07:13:23;;;;;;;2.63;1.40;;;17.00;99.70;;;;;;4956962;29;20493;-72
2021/09/30 07:15:49;;;;;;;2.00;1.50;;;18.00;99.20;;;;;;4957041;29;20746;-73
2021/09/30 07:18:20;;;;;;;1.03;0.93;;;19.00;96.50;;;;;;4956591;29;20184;-72
2021/09/30 07:20:59;;;;;;;0.80;0.80;;;19.70;93.70;;;;;;4956940;29;20411;-72
2021/09/30 07:23:25;;;;;;;1.30;1.00;;;20.00;93.40;;;;;;4964123;28;20423;-72
2021/09/30 07:25:51;;;;;;;1.00;0.90;;;20.40;92.70;;;;;;4976233;28;20425;-74
2021/09/30 07:28:19;;;;;;;1.70;0.90;;;20.60;91.60;;;;;;4958285;28;20662;-71
2021/09/30 07:30:45;;;;;;;3.00;0.73;;;20.60;91.20;;;;;;4958031;28;20545;-73
2021/09/30 07:33:11;;;;;;;2.40;1.13;;;21.00;90.60;;;;;;4976031;28;20419;-71
2021/09/30 07:35:37;;;;;;;2.57;0.87;;;21.60;90.10;;;;;;4952645;29;20181;-74
2021/09/30 07:38:03;;;;;;;0.70;0.70;;;22.20;87.80;;;;;;4956333;29;20413;-73
2021/09/30 07:40:31;;;;;;;3.23;0.80;;;22.90;83.30;;;;;;4939263;29;20443;-72
2021/09/30 07:42:57;;;;;;;0.70;0.50;;;23.30;81.70;;;;;;4956804;29;20897;-72
2021/09/30 07:45:23;;;;;;;1.53;1.00;;;23.80;79.50;;;;;;4956428;29;20411;-72
2021/09/30 07:47:49;;;;;;;1.07;0.80;;;24.40;77.30;;;;;;4956130;29;20838;-71
2021/09/30 07:50:15;;;;;;;2.10;0.80;;;24.70;75.80;;;;;;4957686;28;20554;-72
2021/09/30 07:52:41;;;;;;;5.63;0.90;;;24.90;75.10;;;;;;4939207;29;20280;-72
2021/09/30 07:55:07;;;;;;;3.00;1.13;;;25.30;73.70;;;;;;4956387;29;20466;-71
2021/09/30 07:57:33;;;;;;;1.00;0.80;;;25.60;71.70;;;;;;4938504;29;20181;-73
2021/09/30 07:59:59;;;;;;;0.80;0.73;;;25.70;70.40;;;;;;4956188;29;20414;-72
2021/09/30 08:02:25;;;;;;;1.00;1.00;;;25.90;69.40;;;;;;4955889;29;20177;-75
2021/09/30 08:04:50;;;;;;;1.30;0.93;;;26.30;69.90;;;;;;4956053;28;20192;-74
2021/09/30 08:07:16;;;;;;;1.37;1.10;;;26.80;67.40;;;;;;4974183;28;20184;-72
2021/09/30 08:09:42;;;;;;;1.50;0.80;;;26.90;64.60;;;;;;4975069;28;20287;-72
2021/09/30 08:12:08;;;;;;;1.03;0.77;;;26.90;64.70;;;;;;4957857;28;20184;-71
2021/09/30 08:14:35;;;;;;;1.43;0.60;;;26.90;64.00;;;;;;4974834;28;20448;-68
2021/09/30 08:17:00;;;;;;;0.80;0.80;;;27.00;62.90;;;;;;4974728;28;20793;-68
2021/09/30 08:19:26;;;;;;;0.97;0.80;;;27.10;63.60;;;;;;4975045;28;20418;-69
2021/09/30 08:21:52;;;;;;;1.00;1.00;;;27.00;61.00;;;;;;4975162;28;20207;-70
2021/09/30 08:24:19;;;;;;;1.10;1.10;;;26.60;62.90;;;;;;4957782;28;20236;-66
2021/09/30 08:26:45;;;;;;;0.63;0.63;;;26.70;62.20;;;;;;4974634;28;20451;-67
2021/09/30 08:29:13;;;;;;;0.70;0.70;;;26.50;63.10;;;;;;4951748;28;20505;-68
2021/09/30 08:31:38;;;;;;;0.60;0.60;;;26.20;62.60;;;;;;4955556;28;20407;-64
2021/09/30 08:34:04;;;;;;;0.93;0.93;;;25.90;62.60;;;;;;4955597;29;20534;-66
2021/09/30 08:36:31;;;;;;;0.70;0.70;;;25.70;62.70;;;;;;4955127;29;20620;-66
2021/09/30 08:38:57;;;;;;;1.07;0.77;;;25.50;63.50;;;;;;4955212;29;20847;-65
2021/09/30 08:41:23;;;;;;;1.73;0.60;;;25.60;62.10;;;;;;4955502;28;20502;-67
2021/09/30 08:43:49;;;;;;;1.00;0.70;;;25.90;63.10;;;;;;4955580;28;20388;-65
2021/09/30 08:46:16;;;;;;;3.37;0.77;;;26.10;62.40;;;;;;4955203;29;20446;-66
2021/09/30 08:48:42;;;;;;;1.07;1.00;;;26.50;61.20;;;;;;4954614;28;20435;-65
2021/09/30 08:51:09;;;;;;;0.70;0.60;;;26.90;59.40;;;;;;4955221;29;20475;-65
2021/09/30 08:53:35;;;;;;;0.80;0.80;;;26.80;58.80;;;;;;4955222;28;20403;-66
2021/09/30 08:56:04;;;;;;;1.83;0.80;;;26.40;58.20;;;;;;4955434;29;20784;-66
2021/09/30 08:58:30;;;;;;;0.80;0.80;;;25.80;58.80;;;;;;4954896;29;20401;-67
2021/09/30 09:00:58;;;;;;;0.93;0.83;;;25.20;59.40;;;;;;4955403;29;20420;-66
2021/09/30 09:03:50;;;;;;;1.77;0.70;;;24.40;60.10;;;;;;4955238;29;20783;-69
2021/09/30 09:06:35;;;;;;;1.23;0.60;;;22.90;64.00;;;;;;4953216;28;20425;-70
2021/09/30 09:09:23;;;;;;;0.60;0.60;;;22.10;65.80;;;;;;4935767;29;20410;-67
2021/09/30 09:11:50;;;;;;;0.60;0.60;;;21.30;64.80;;;;;;4936001;29;20428;-68
2021/09/30 09:14:22;;;;;;;0.47;0.40;;;20.50;66.60;;;;;;4936032;29;20384;-67
2021/09/30 09:16:59;;;;;;;0.50;0.50;;;19.80;69.20;;;;;;4935430;29;20388;-67
2021/09/30 09:19:39;;;;;;;0.50;0.50;;;19.30;70.70;;;;;;4936073;29;20476;-65
2021/09/30 09:22:06;;;;;;;0.77;0.50;;;18.80;72.70;;;;;;4956315;28;20829;-67
2021/09/30 09:24:32;;;;;;;0.50;0.50;;;18.60;73.80;;;;;;4974420;28;20426;-67
2021/09/30 09:26:59;;;;;;;0.73;0.50;;;18.30;75.70;;;;;;4973948;28;20832;-67
2021/09/30 09:29:31;;;;;;;0.43;0.43;;;18.30;73.50;;;;;;4974303;28;20567;-67
2021/09/30 09:32:02;;;;;;;0.60;0.60;;;18.10;73.30;;;;;;4974297;28;20494;-67
2021/09/30 09:34:32;;;;;;;0.40;0.40;;;17.90;74.70;;;;;;4974257;28;20462;-67
2021/09/30 09:37:20;;;;;;;0.53;0.40;;;17.70;76.70;;;;;;4962425;28;20424;-67
2021/09/30 09:39:47;;;;;;;0.70;0.40;;;17.60;76.60;;;;;;4954753;29;20462;-66
2021/09/30 09:42:19;;;;;;;0.50;0.50;;;17.80;78.20;;;;;;4954823;29;20929;-66
2021/09/30 09:45:05;;;;;;;1.10;0.60;;;18.30;77.90;;;;;;4954879;29;20412;-66
2021/09/30 09:47:33;;;;;;;7.93;0.60;;;18.90;75.70;;;;;;4954371;29;20751;-66
2021/09/30 09:50:18;;;;;;;0.40;0.30;;;19.30;70.70;;;;;;4954520;29;20437;-66
2021/09/30 09:52:54;;;;;;;0.67;0.50;;;19.70;71.40;;;;;;4955064;28;20410;-68
2021/09/30 09:55:31;;;;;;;1.27;0.30;;;20.30;69.30;;;;;;4960918;28;20544;-67
2021/09/30 09:58:02;;;;;;;0.50;0.50;;;20.90;69.00;;;;;;4977079;28;20455;-67
2021/09/30 10:00:30;;;;;;;0.60;0.60;;;21.60;66.80;;;;;;4977372;28;20404;-67
2021/09/30 10:02:56;;;;;;;0.73;0.50;;;22.30;66.40;;;;;;4977729;28;20767;-67
2021/09/30 10:05:23;;;;;;;0.93;0.60;;;23.00;64.60;;;;;;4977562;28;20390;-68
2021/09/30 10:07:49;;;;;;;0.80;0.60;;;23.50;62.90;;;;;;4977063;28;20466;-67
2021/09/30 10:10:16;;;;;;;3.90;0.50;;;24.20;60.80;;;;;;4977483;28;20485;-66
2021/09/30 10:12:43;;;;;;;0.90;0.50;;;24.70;60.20;;;;;;4959721;28;20181;-66
2021/09/30 10:15:11;;;;;;;2.97;0.40;;;24.80;57.50;;;;;;4957826;29;20428;-67
2021/09/30 10:17:37;;;;;;;1.23;0.83;;;24.60;56.70;;;;;;4957772;29;20387;-66
2021/09/30 10:20:03;;;;;;;0.70;0.50;;;24.70;57.00;;;;;;4957967;29;20462;-67
2021/09/30 10:22:30;;;;;;;0.40;0.40;;;25.00;58.10;;;;;;4957900;29;20800;-67
2021/09/30 10:24:56;;;;;;;0.87;0.53;;;25.10;56.00;;;;;;4965020;28;20438;-67
2021/09/30 10:27:22;;;;;;;1.50;0.50;;;25.30;56.00;;;;;;4976314;28;20423;-67
2021/09/30 10:29:49;;;;;;;1.37;0.63;;;25.00;55.80;;;;;;4976666;28;20549;-69
2021/09/30 10:32:17;;;;;;;2.00;0.60;;;24.60;54.70;;;;;;4963126;28;20898;-69
2021/09/30 10:34:47;;;;;;;0.50;0.50;;;24.00;56.00;;;;;;4934888;29;20410;-65
2021/09/30 10:37:31;;;;;;;0.80;0.50;;;23.90;55.10;;;;;;4957291;29;20412;-66
2021/09/30 10:40:20;;;;;;;1.73;0.70;;;24.10;55.90;;;;;;4966991;28;20828;-67
2021/09/30 10:42:57;;;;;;;0.40;0.40;;;24.30;55.60;;;;;;4976770;28;20412;-67
2021/09/30 10:45:38;;;;;;;0.67;0.67;;;24.70;57.10;;;;;;4976906;28;20379;-67
2021/09/30 10:48:24;;;;;;;1.80;0.50;;;24.80;55.30;;;;;;4976208;28;20465;-67
2021/09/30 10:50:55;;;;;;;0.47;0.47;;;24.70;55.20;;;;;;4976395;28;20804;-67
2021/09/30 10:53:46;;;;;;;0.80;0.80;;;25.00;55.10;;;;;;4976597;28;20473;-66
2021/09/30 10:56:30;;;;;;;0.43;0.43;;;25.30;55.00;;;;;;4937974;29;20415;-66
2021/09/30 10:59:22;;;;;;;0.60;0.60;;;25.30;54.10;;;;;;4938054;29;20524;-67
2021/09/30 11:01:52;;;;;;;0.73;0.60;;;25.30;54.50;;;;;;4935939;29;20429;-67
2021/09/30 11:04:19;;;;;;;0.60;0.53;;;25.30;54.50;;;;;;4937867;29;20401;-67
2021/09/30 11:07:17;;;;;;;0.60;0.60;;;24.80;53.60;;;;;;4936613;29;20467;-68
2021/09/30 11:10:18;;;;;;;0.60;0.50;;;23.70;55.30;;;;;;4961112;28;20471;-68
2021/09/30 11:13:15;;;;;;;1.17;0.67;;;22.70;55.40;;;;;;4976257;28;20517;-66
2021/09/30 11:16:02;;;;;;;1.60;0.57;;;21.90;56.10;;;;;;4966215;28;20926;-66
2021/09/30 11:18:56;;;;;;;0.40;0.40;;;21.00;57.60;;;;;;4956562;29;20470;-66
2021/09/30 11:21:34;;;;;;;0.70;0.70;;;20.30;57.70;;;;;;4956914;29;20956;-66
2021/09/30 11:24:03;;;;;;;0.57;0.57;;;19.50;58.90;;;;;;4956992;29;20555;-67
2021/09/30 11:26:32;;;;;;;2.20;0.83;;;19.10;61.20;;;;;;4956691;29;20391;-67
2021/09/30 11:29:21;;;;;;;0.53;0.53;;;19.00;61.20;;;;;;4939396;29;20440;-68
2021/09/30 11:31:49;;;;;;;0.50;0.50;;;18.90;61.00;;;;;;4950332;29;20458;-67
2021/09/30 11:34:19;;;;;;;0.97;0.40;;;18.70;60.80;;;;;;4956636;29;20383;-66
2021/09/30 11:36:45;;;;;;;1.07;0.60;;;18.50;62.60;;;;;;4956583;29;20407;-67
2021/09/30 11:39:12;;;;;;;0.50;0.37;;;18.40;61.60;;;;;;4956389;29;21001;-67
2021/09/30 11:41:39;;;;;;;0.63;0.60;;;18.40;63.20;;;;;;4956285;29;20930;-66
2021/09/30 11:44:06;;;;;;;0.50;0.40;;;18.40;61.90;;;;;;4960937;28;20397;-67
2021/09/30 11:46:38;;;;;;;0.67;0.50;;;18.40;61.20;;;;;;4975298;28;20934;-66
2021/09/30 11:49:06;;;;;;;0.50;0.50;;;18.50;59.60;;;;;;4975498;28;20809;-66
2021/09/30 11:51:37;;;;;;;0.50;0.40;;;18.40;60.50;;;;;;4958126;28;20444;-67
2021/09/30 11:54:05;;;;;;;1.40;1.30;;;18.30;63.10;;;;;;4975425;28;20881;-67
2021/09/30 11:56:41;;;;;;;2.47;1.40;;;18.30;65.00;;;;;;4975162;28;20419;-73
2021/09/30 11:59:07;;;;;;;0.60;0.60;;;18.30;64.40;;;;;;4957969;28;20443;-72
2021/09/30 12:01:47;;;;;;;0.50;0.40;;;18.30;62.70;;;;;;4975469;28;20884;-70
2021/09/30 12:04:38;;;;;;;0.73;0.73;;;18.20;63.30;;;;;;4975489;28;20823;-72
2021/09/30 12:07:04;;;;;;;0.50;0.50;;;18.20;65.20;;;;;;4973529;28;20811;-72
2021/09/30 12:09:34;;;;;;;0.43;0.43;;;18.30;63.20;;;;;;4975094;28;20447;-67
2021/09/30 12:12:03;;;;;;;1.50;0.60;;;18.20;64.00;;;;;;4975237;28;20402;-67
2021/09/30 12:14:39;;;;;;;0.93;0.80;;;18.10;64.90;;;;;;4975204;28;20446;-67
2021/09/30 12:17:08;;;;;;;1.03;0.90;;;18.10;65.70;;;;;;4974514;28;20422;-67
2021/09/30 12:19:39;;;;;;;1.57;0.70;;;18.10;64.80;;;;;;4957974;28;20966;-67
2021/09/30 12:22:20;;;;;;;0.40;0.40;;;18.10;63.70;;;;;;4975046;28;20473;-68
2021/09/30 12:24:55;;;;;;;0.50;0.50;;;17.90;65.50;;;;;;4975369;28;20499;-66
2021/09/30 12:27:30;;;;;;;0.50;0.50;;;17.80;64.90;;;;;;4974823;28;20846;-67
2021/09/30 12:30:18;;;;;;;0.50;0.50;;;17.80;65.40;;;;;;4974979;28;20461;-67
2021/09/30 12:32:47;;;;;;;0.50;0.30;;;17.80;63.40;;;;;;4975233;28;20405;-68
2021/09/30 12:35:22;;;;;;;0.47;0.47;;;17.60;64.50;;;;;;4964572;28;20505;-67
2021/09/30 12:37:51;;;;;;;0.40;0.40;;;17.60;66.40;;;;;;4953199;29;20503;-67
2021/09/30 12:40:20;;;;;;;0.50;0.50;;;17.60;63.50;;;;;;4953400;29;20430;-67
2021/09/30 12:43:10;;;;;;;0.57;0.57;;;17.50;63.30;;;;;;4953412;29;20410;-67
2021/09/30 12:45:43;;;;;;;2.50;0.70;;;17.40;64.70;;;;;;4953599;29;20410;-66
2021/09/30 12:48:12;;;;;;;3.03;0.60;;;17.30;65.80;;;;;;4953127;29;20450;-66
2021/09/30 12:50:49;;;;;;;0.63;0.60;;;17.40;62.90;;;;;;4953515;28;20478;-67
2021/09/30 12:53:20;;;;;;;2.70;0.60;;;17.40;62.30;;;;;;4955443;29;20409;-67
2021/09/30 12:55:51;;;;;;;0.60;0.40;;;17.30;63.30;;;;;;4955364;29;20412;-66
2021/09/30 12:58:49;;;;;;;0.67;0.50;;;17.20;65.60;;;;;;4938030;29;20473;-68
2021/09/30 13:01:30;;;;;;;0.87;0.57;;;17.20;66.70;;;;;;4947816;29;20424;-66
2021/09/30 13:04:24;;;;;;;0.40;0.40;;;17.30;66.20;;;;;;4942910;28;20409;-66
2021/09/30 13:06:56;;;;;;;0.50;0.50;;;17.30;64.00;;;;;;4956842;28;20412;-66
2021/09/30 13:09:22;;;;;;;0.60;0.47;;;17.30;63.30;;;;;;4974270;28;20473;-66
2021/09/30 13:12:02;;;;;;;0.60;0.37;;;17.30;64.00;;;;;;4974577;28;20927;-66
2021/09/30 13:14:30;;;;;;;1.13;0.93;;;17.20;66.30;;;;;;4974555;28;20416;-66
2021/09/30 13:16:57;;;;;;;1.10;0.60;;;17.10;64.00;;;;;;4974220;28;20417;-67
2021/09/30 13:19:40;;;;;;;1.53;1.43;;;17.10;63.60;;;;;;4956608;28;20444;-67
2021/09/30 13:22:06;;;;;;;0.50;0.50;;;17.10;65.80;;;;;;4974471;28;20400;-67
2021/09/30 13:24:37;;;;;;;0.40;0.40;;;17.20;63.40;;;;;;4974010;28;20416;-67
2021/09/30 13:27:05;;;;;;;1.00;0.80;;;17.10;62.10;;;;;;4973846;28;20481;-66
2021/09/30 13:29:31;;;;;;;0.47;0.47;;;17.20;63.30;;;;;;4976417;28;20814;-67
2021/09/30 13:31:57;;;;;;;1.40;0.50;;;17.20;64.50;;;;;;4978384;28;20416;-67
2021/09/30 13:34:23;;;;;;;0.30;0.30;;;17.20;64.90;;;;;;4962593;28;20177;-67
2021/09/30 13:36:49;;;;;;;0.70;0.53;;;17.30;65.90;;;;;;4958618;29;20519;-66
2021/09/30 13:39:16;;;;;;;1.00;0.90;;;17.20;62.10;;;;;;4958735;29;20433;-67
2021/09/30 13:41:42;;;;;;;0.90;0.50;;;17.10;62.50;;;;;;4958676;29;20452;-67
2021/09/30 13:44:08;;;;;;;0.60;0.60;;;17.10;63.70;;;;;;4958669;29;20509;-66
2021/09/30 13:46:34;;;;;;;0.50;0.40;;;17.10;61.90;;;;;;4958415;29;20416;-66
2021/09/30 13:49:00;;;;;;;0.43;0.40;;;17.10;61.10;;;;;;4958613;28;20469;-66
2021/09/30 13:51:30;;;;;;;0.40;0.40;;;16.90;61.90;;;;;;4958260;29;20503;-66
2021/09/30 13:53:56;;;;;;;0.90;0.90;;;16.80;62.50;;;;;;4958383;29;20187;-66
2021/09/30 13:56:23;;;;;;;0.70;0.40;;;16.80;63.50;;;;;;4958327;29;20423;-66
2021/09/30 13:58:48;;;;;;;1.00;0.90;;;16.80;64.50;;;;;;4958219;29;20458;-66
2021/09/30 14:01:14;;;;;;;1.07;0.50;;;16.80;65.10;;;;;;4951331;28;20431;-66
2021/09/30 14:03:40;;;;;;;0.37;0.37;;;16.80;64.60;;;;;;4977779;28;20220;-66
2021/09/30 14:06:06;;;;;;;0.40;0.40;;;16.90;62.90;;;;;;4977685;28;20422;-66
2021/09/30 14:08:32;;;;;;;0.30;0.23;;;16.90;62.70;;;;;;4976919;28;20183;-66
2021/09/30 14:10:59;;;;;;;0.40;0.30;;;16.80;62.50;;;;;;4977371;28;20270;-67
2021/09/30 14:13:24;;;;;;;2.20;0.53;;;16.70;62.80;;;;;;4977394;28;20399;-66
2021/09/30 14:15:50;;;;;;;0.60;0.60;;;16.60;63.90;;;;;;4977045;28;20462;-67
2021/09/30 14:18:16;;;;;;;0.50;0.50;;;16.60;63.40;;;;;;4977016;28;20639;-67
2021/09/30 14:20:42;;;;;;;0.67;0.50;;;16.50;64.70;;;;;;4977289;28;20196;-67
2021/09/30 14:23:07;;;;;;;0.50;0.50;;;16.40;64.90;;;;;;4977375;28;20199;-66
2021/09/30 14:25:33;;;;;;;0.93;0.73;;;16.50;64.50;;;;;;4977645;28;20884;-67
2021/09/30 14:27:59;;;;;;;0.77;0.67;;;16.40;64.30;;;;;;4976914;28;20415;-67
2021/09/30 14:30:24;;;;;;;1.50;0.77;;;16.40;64.10;;;;;;4967839;28;20200;-67
2021/09/30 14:32:51;;;;;;;1.17;1.10;;;16.40;63.90;;;;;;4958018;29;20177;-66
2021/09/30 14:35:18;;;;;;;0.50;0.50;;;16.40;64.50;;;;;;4957735;28;20271;-66
2021/09/30 14:37:47;;;;;;;1.00;0.90;;;16.40;64.70;;;;;;4957346;29;20503;-66
2021/09/30 14:40:14;;;;;;;0.40;0.40;;;16.40;65.20;;;;;;4956467;28;20440;-66
2021/09/30 14:42:40;;;;;;;0.70;0.70;;;16.40;65.80;;;;;;4957712;29;20952;-67
2021/09/30 14:45:07;;;;;;;0.43;0.43;;;16.40;64.30;;;;;;4958646;28;20787;-66
2021/09/30 14:47:32;;;;;;;0.50;0.50;;;16.40;64.50;;;;;;4957294;29;20416;-67
2021/09/30 14:49:59;;;;;;;0.57;0.57;;;16.30;64.70;;;;;;4957268;29;20452;-67
2021/09/30 14:52:24;;;;;;;0.70;0.70;;;16.30;65.40;;;;;;4957621;29;20235;-67
2021/09/30 14:54:50;;;;;;;0.53;0.50;;;16.30;67.20;;;;;;4957494;29;20753;-66
2021/09/30 14:57:17;;;;;;;1.00;0.50;;;16.40;64.60;;;;;;4957104;29;20410;-68
2021/09/30 14:59:43;;;;;;;0.80;0.50;;;16.30;66.60;;;;;;4957601;28;20204;-67
2021/09/30 15:02:09;;;;;;;0.87;0.40;;;16.20;66.10;;;;;;4957418;29;20846;-67
2021/09/30 15:04:35;;;;;;;0.60;0.60;;;16.20;65.60;;;;;;4957334;29;20512;-66
2021/09/30 15:07:01;;;;;;;1.40;0.40;;;16.20;65.00;;;;;;4956765;29;20177;-67
2021/09/30 15:09:27;;;;;;;0.50;0.50;;;16.10;65.20;;;;;;4956968;29;20443;-66
2021/09/30 15:11:53;;;;;;;0.43;0.43;;;16.10;65.30;;;;;;4957003;29;20404;-67
2021/09/30 15:14:18;;;;;;;1.07;0.47;;;16.10;65.00;;;;;;4963214;28;20219;-67
2021/09/30 15:16:57;;;;;;;0.50;0.43;;;16.10;64.50;;;;;;4976113;28;20416;-67
2021/09/30 15:19:25;;;;;;;0.97;0.60;;;16.00;65.00;;;;;;4976363;28;20199;-66
2021/09/30 15:21:52;;;;;;;0.50;0.50;;;15.90;64.70;;;;;;4976365;28;20406;-66
2021/09/30 15:24:20;;;;;;;0.80;0.67;;;15.90;65.20;;;;;;4966935;28;20420;-67
2021/09/30 15:26:48;;;;;;;2.40;0.60;;;15.90;66.00;;;;;;4956406;29;20439;-67
2021/09/30 15:29:16;;;;;;;0.83;0.83;;;16.00;66.40;;;;;;4956505;29;20439;-66
2021/09/30 15:31:43;;;;;;;0.93;0.60;;;16.10;66.20;;;;;;4956810;29;20411;-67
2021/09/30 15:34:10;;;;;;;0.80;0.80;;;16.00;66.60;;;;;;4956545;29;20451;-67
2021/09/30 15:36:36;;;;;;;1.00;0.50;;;16.00;66.80;;;;;;4956325;29;20784;-67
2021/09/30 15:39:05;;;;;;;0.30;0.20;;;16.00;67.40;;;;;;4956226;28;20440;-66
2021/09/30 15:41:32;;;;;;;0.97;0.97;;;16.00;69.00;;;;;;4939123;29;20424;-66
2021/09/30 15:43:58;;;;;;;1.90;0.70;;;16.00;69.30;;;;;;4956313;29;20432;-66
2021/09/30 15:46:23;;;;;;;0.37;0.37;;;15.90;69.40;;;;;;4956396;29;20780;-67